sensor_id;sensor_type;location;lat;lon;timestamp;P1;durP1;ratioP1;P2;durP2;ratioP2
33206;SDS011;19565;46.602;11.534;2022-08-26T00:02:10;5.05;;;4.75;;
33206;SDS011;19565;46.602;11.534;2022-08-26T00:04:40;6.05;;;5.65;;
33206;SDS011;19565;46.602;11.534;2022-08-26T00:07:08;6.20;;;5.78;;
33206;SDS011;19565;46.602;11.534;2022-08-26T00:09:37;5.95;;;5.55;;
33206;SDS011;19565;46.602;11.534;2022-08-26T00:12:06;6.30;;;5.10;;
33206;SDS011;19565;46.602;11.534;2022-08-26T00:14:38;5.05;;;4.70;;
33206;SDS011;19565;46.602;11.534;2022-08-26T00:17:07;3.70;;;3.50;;
33206;SDS011;19565;46.602;11.534;2022-08-26T00:19:37;2.47;;;2.33;;
33206;SDS011;19565;46.602;11.534;2022-08-26T00:22:05;2.30;;;2.15;;
33206;SDS011;19565;46.602;11.534;2022-08-26T00:24:33;1.83;;;1.73;;
33206;SDS011;19565;46.602;11.534;2022-08-26T00:27:03;2.05;;;1.77;;
33206;SDS011;19565;46.602;11.534;2022-08-26T00:29:31;1.65;;;1.40;;
33206;SDS011;19565;46.602;11.534;2022-08-26T00:32:03;1.80;;;1.67;;
33206;SDS011;19565;46.602;11.534;2022-08-26T00:34:33;1.65;;;1.55;;
33206;SDS011;19565;46.602;11.534;2022-08-26T00:37:01;2.38;;;2.17;;
33206;SDS011;19565;46.602;11.534;2022-08-26T00:39:37;3.47;;;2.75;;
33206;SDS011;19565;46.602;11.534;2022-08-26T00:42:06;1.42;;;1.33;;
33206;SDS011;19565;46.602;11.534;2022-08-26T00:44:34;1.15;;;1.05;;
33206;SDS011;19565;46.602;11.534;2022-08-26T00:47:03;2.05;;;1.88;;
33206;SDS011;19565;46.602;11.534;2022-08-26T00:49:36;1.23;;;1.13;;
33206;SDS011;19565;46.602;11.534;2022-08-26T00:52:08;1.92;;;1.70;;
33206;SDS011;19565;46.602;11.534;2022-08-26T00:54:41;1.77;;;1.33;;
33206;SDS011;19565;46.602;11.534;2022-08-26T00:57:13;0.88;;;0.85;;
33206;SDS011;19565;46.602;11.534;2022-08-26T00:59:45;1.23;;;1.05;;
33206;SDS011;19565;46.602;11.534;2022-08-26T01:02:17;1.73;;;1.35;;
33206;SDS011;19565;46.602;11.534;2022-08-26T01:04:48;5.47;;;1.55;;
33206;SDS011;19565;46.602;11.534;2022-08-26T01:07:22;1.17;;;1.15;;
33206;SDS011;19565;46.602;11.534;2022-08-26T01:09:55;2.50;;;1.77;;
33206;SDS011;19565;46.602;11.534;2022-08-26T01:12:24;3.22;;;2.22;;
33206;SDS011;19565;46.602;11.534;2022-08-26T01:14:55;2.65;;;1.55;;
33206;SDS011;19565;46.602;11.534;2022-08-26T01:17:23;1.48;;;1.38;;
33206;SDS011;19565;46.602;11.534;2022-08-26T01:19:55;1.48;;;1.33;;
33206;SDS011;19565;46.602;11.534;2022-08-26T01:22:29;1.48;;;1.38;;
33206;SDS011;19565;46.602;11.534;2022-08-26T01:25:00;3.65;;;1.52;;
33206;SDS011;19565;46.602;11.534;2022-08-26T01:27:30;1.45;;;1.35;;
33206;SDS011;19565;46.602;11.534;2022-08-26T01:30:00;1.25;;;1.15;;
33206;SDS011;19565;46.602;11.534;2022-08-26T01:32:31;1.00;;;0.98;;
33206;SDS011;19565;46.602;11.534;2022-08-26T01:35:04;1.17;;;1.10;;
33206;SDS011;19565;46.602;11.534;2022-08-26T01:37:34;1.52;;;1.42;;
33206;SDS011;19565;46.602;11.534;2022-08-26T01:40:10;1.73;;;1.63;;
33206;SDS011;19565;46.602;11.534;2022-08-26T01:42:42;1.67;;;1.58;;
33206;SDS011;19565;46.602;11.534;2022-08-26T01:45:13;1.30;;;1.20;;
33206;SDS011;19565;46.602;11.534;2022-08-26T01:47:45;2.15;;;1.67;;
33206;SDS011;19565;46.602;11.534;2022-08-26T01:50:22;4.70;;;2.30;;
33206;SDS011;19565;46.602;11.534;2022-08-26T01:52:56;1.63;;;1.50;;
33206;SDS011;19565;46.602;11.534;2022-08-26T01:55:31;2.47;;;1.98;;
33206;SDS011;19565;46.602;11.534;2022-08-26T01:58:02;1.67;;;1.58;;
33206;SDS011;19565;46.602;11.534;2022-08-26T02:00:39;1.33;;;1.23;;
33206;SDS011;19565;46.602;11.534;2022-08-26T02:03:09;1.85;;;1.40;;
33206;SDS011;19565;46.602;11.534;2022-08-26T02:05:44;1.17;;;1.10;;
33206;SDS011;19565;46.602;11.534;2022-08-26T02:08:17;2.70;;;1.77;;
33206;SDS011;19565;46.602;11.534;2022-08-26T02:10:52;1.90;;;1.35;;
33206;SDS011;19565;46.602;11.534;2022-08-26T02:13:22;0.95;;;0.93;;
33206;SDS011;19565;46.602;11.534;2022-08-26T02:15:54;3.10;;;1.48;;
33206;SDS011;19565;46.602;11.534;2022-08-26T02:18:23;2.50;;;1.73;;
33206;SDS011;19565;46.602;11.534;2022-08-26T02:20:53;1.35;;;1.17;;
33206;SDS011;19565;46.602;11.534;2022-08-26T02:23:22;1.52;;;1.42;;
33206;SDS011;19565;46.602;11.534;2022-08-26T02:25:53;4.57;;;1.80;;
33206;SDS011;19565;46.602;11.534;2022-08-26T02:28:27;1.88;;;1.58;;
33206;SDS011;19565;46.602;11.534;2022-08-26T02:31:02;0.98;;;0.93;;
33206;SDS011;19565;46.602;11.534;2022-08-26T02:33:30;1.50;;;1.40;;
33206;SDS011;19565;46.602;11.534;2022-08-26T02:36:01;2.20;;;1.92;;
33206;SDS011;19565;46.602;11.534;2022-08-26T02:38:29;1.23;;;1.13;;
33206;SDS011;19565;46.602;11.534;2022-08-26T02:41:00;2.17;;;1.42;;
33206;SDS011;19565;46.602;11.534;2022-08-26T02:43:28;1.10;;;1.00;;
33206;SDS011;19565;46.602;11.534;2022-08-26T02:45:58;1.45;;;1.35;;
33206;SDS011;19565;46.602;11.534;2022-08-26T02:48:27;1.65;;;0.70;;
33206;SDS011;19565;46.602;11.534;2022-08-26T02:50:57;1.58;;;1.48;;
33206;SDS011;19565;46.602;11.534;2022-08-26T02:53:27;1.20;;;1.10;;
33206;SDS011;19565;46.602;11.534;2022-08-26T02:56:02;2.05;;;1.50;;
33206;SDS011;19565;46.602;11.534;2022-08-26T02:58:30;3.53;;;1.38;;
33206;SDS011;19565;46.602;11.534;2022-08-26T03:00:59;1.17;;;1.17;;
33206;SDS011;19565;46.602;11.534;2022-08-26T03:03:30;1.83;;;1.38;;
33206;SDS011;19565;46.602;11.534;2022-08-26T03:05:58;1.58;;;1.45;;
33206;SDS011;19565;46.602;11.534;2022-08-26T03:08:27;2.92;;;2.00;;
33206;SDS011;19565;46.602;11.534;2022-08-26T03:10:55;1.13;;;1.10;;
33206;SDS011;19565;46.602;11.534;2022-08-26T03:13:28;2.35;;;1.73;;
33206;SDS011;19565;46.602;11.534;2022-08-26T03:15:59;1.27;;;1.17;;
33206;SDS011;19565;46.602;11.534;2022-08-26T03:18:27;1.30;;;1.17;;
33206;SDS011;19565;46.602;11.534;2022-08-26T03:20:56;2.00;;;1.88;;
33206;SDS011;19565;46.602;11.534;2022-08-26T03:23:24;4.53;;;1.90;;
33206;SDS011;19565;46.602;11.534;2022-08-26T03:25:53;1.33;;;1.23;;
33206;SDS011;19565;46.602;11.534;2022-08-26T03:28:22;1.13;;;1.02;;
33206;SDS011;19565;46.602;11.534;2022-08-26T03:30:53;0.73;;;0.73;;
33206;SDS011;19565;46.602;11.534;2022-08-26T03:33:23;2.65;;;1.98;;
33206;SDS011;19565;46.602;11.534;2022-08-26T03:35:52;1.67;;;1.30;;
33206;SDS011;19565;46.602;11.534;2022-08-26T03:38:22;1.63;;;1.17;;
33206;SDS011;19565;46.602;11.534;2022-08-26T03:40:51;1.67;;;1.55;;
33206;SDS011;19565;46.602;11.534;2022-08-26T03:43:22;1.13;;;1.02;;
33206;SDS011;19565;46.602;11.534;2022-08-26T03:45:52;2.85;;;1.83;;
33206;SDS011;19565;46.602;11.534;2022-08-26T03:48:22;0.55;;;0.55;;
33206;SDS011;19565;46.602;11.534;2022-08-26T03:50:50;0.80;;;0.73;;
33206;SDS011;19565;46.602;11.534;2022-08-26T03:53:18;2.03;;;1.88;;
33206;SDS011;19565;46.602;11.534;2022-08-26T03:55:47;2.67;;;1.52;;
33206;SDS011;19565;46.602;11.534;2022-08-26T03:58:17;2.55;;;1.58;;
33206;SDS011;19565;46.602;11.534;2022-08-26T04:00:46;1.20;;;1.15;;
33206;SDS011;19565;46.602;11.534;2022-08-26T04:03:22;1.45;;;1.35;;
33206;SDS011;19565;46.602;11.534;2022-08-26T04:06:04;0.77;;;0.77;;
33206;SDS011;19565;46.602;11.534;2022-08-26T04:08:34;0.77;;;0.75;;
33206;SDS011;19565;46.602;11.534;2022-08-26T04:11:03;3.60;;;2.05;;
33206;SDS011;19565;46.602;11.534;2022-08-26T04:13:32;1.83;;;1.70;;
33206;SDS011;19565;46.602;11.534;2022-08-26T04:16:00;1.85;;;1.55;;
33206;SDS011;19565;46.602;11.534;2022-08-26T04:18:30;3.45;;;2.13;;
33206;SDS011;19565;46.602;11.534;2022-08-26T04:21:02;0.93;;;0.93;;
33206;SDS011;19565;46.602;11.534;2022-08-26T04:23:33;2.20;;;1.67;;
33206;SDS011;19565;46.602;11.534;2022-08-26T04:26:13;3.60;;;1.70;;
33206;SDS011;19565;46.602;11.534;2022-08-26T04:28:44;1.38;;;1.27;;
33206;SDS011;19565;46.602;11.534;2022-08-26T04:31:13;1.63;;;1.45;;
33206;SDS011;19565;46.602;11.534;2022-08-26T04:33:44;1.75;;;1.25;;
33206;SDS011;19565;46.602;11.534;2022-08-26T04:36:15;2.45;;;1.40;;
33206;SDS011;19565;46.602;11.534;2022-08-26T04:38:45;2.58;;;1.73;;
33206;SDS011;19565;46.602;11.534;2022-08-26T04:41:17;2.53;;;2.25;;
33206;SDS011;19565;46.602;11.534;2022-08-26T04:43:45;1.55;;;1.05;;
33206;SDS011;19565;46.602;11.534;2022-08-26T04:46:15;1.25;;;1.15;;
33206;SDS011;19565;46.602;11.534;2022-08-26T04:48:48;1.45;;;1.35;;
33206;SDS011;19565;46.602;11.534;2022-08-26T04:51:17;1.40;;;1.25;;
33206;SDS011;19565;46.602;11.534;2022-08-26T04:53:53;0.90;;;0.85;;
33206;SDS011;19565;46.602;11.534;2022-08-26T04:56:22;1.98;;;1.60;;
33206;SDS011;19565;46.602;11.534;2022-08-26T04:58:51;2.08;;;1.50;;
33206;SDS011;19565;46.602;11.534;2022-08-26T05:01:19;1.30;;;1.20;;
33206;SDS011;19565;46.602;11.534;2022-08-26T05:03:50;2.92;;;1.55;;
33206;SDS011;19565;46.602;11.534;2022-08-26T05:06:20;1.23;;;1.13;;
33206;SDS011;19565;46.602;11.534;2022-08-26T05:08:48;2.53;;;2.33;;
33206;SDS011;19565;46.602;11.534;2022-08-26T05:11:18;1.00;;;0.88;;
33206;SDS011;19565;46.602;11.534;2022-08-26T05:13:47;2.67;;;1.40;;
33206;SDS011;19565;46.602;11.534;2022-08-26T05:16:16;1.35;;;1.25;;
33206;SDS011;19565;46.602;11.534;2022-08-26T05:18:45;2.28;;;1.88;;
33206;SDS011;19565;46.602;11.534;2022-08-26T05:21:18;1.63;;;1.52;;
33206;SDS011;19565;46.602;11.534;2022-08-26T05:23:48;1.27;;;1.17;;
33206;SDS011;19565;46.602;11.534;2022-08-26T05:26:17;4.05;;;1.92;;
33206;SDS011;19565;46.602;11.534;2022-08-26T05:28:48;2.13;;;1.92;;
33206;SDS011;19565;46.602;11.534;2022-08-26T05:31:20;1.60;;;1.50;;
33206;SDS011;19565;46.602;11.534;2022-08-26T05:33:51;0.93;;;0.93;;
33206;SDS011;19565;46.602;11.534;2022-08-26T05:36:21;2.97;;;1.80;;
33206;SDS011;19565;46.602;11.534;2022-08-26T05:38:52;1.08;;;1.00;;
33206;SDS011;19565;46.602;11.534;2022-08-26T05:41:21;2.65;;;2.42;;
33206;SDS011;19565;46.602;11.534;2022-08-26T05:44:03;2.35;;;2.15;;
33206;SDS011;19565;46.602;11.534;2022-08-26T05:46:32;1.17;;;1.13;;
33206;SDS011;19565;46.602;11.534;2022-08-26T05:49:02;1.83;;;1.63;;
33206;SDS011;19565;46.602;11.534;2022-08-26T05:51:32;1.63;;;1.52;;
33206;SDS011;19565;46.602;11.534;2022-08-26T05:54:02;1.23;;;1.05;;
33206;SDS011;19565;46.602;11.534;2022-08-26T05:56:31;1.77;;;1.67;;
33206;SDS011;19565;46.602;11.534;2022-08-26T05:58:59;2.35;;;1.55;;
33206;SDS011;19565;46.602;11.534;2022-08-26T06:01:29;1.27;;;1.17;;
33206;SDS011;19565;46.602;11.534;2022-08-26T06:04:01;2.50;;;2.30;;
33206;SDS011;19565;46.602;11.534;2022-08-26T06:06:30;2.10;;;1.58;;
33206;SDS011;19565;46.602;11.534;2022-08-26T06:09:04;2.70;;;2.50;;
33206;SDS011;19565;46.602;11.534;2022-08-26T06:11:36;2.42;;;1.80;;
33206;SDS011;19565;46.602;11.534;2022-08-26T06:14:05;1.52;;;1.42;;
33206;SDS011;19565;46.602;11.534;2022-08-26T06:16:35;1.48;;;1.40;;
33206;SDS011;19565;46.602;11.534;2022-08-26T06:19:07;2.13;;;1.60;;
33206;SDS011;19565;46.602;11.534;2022-08-26T06:21:38;3.13;;;2.28;;
33206;SDS011;19565;46.602;11.534;2022-08-26T06:24:09;1.65;;;1.55;;
33206;SDS011;19565;46.602;11.534;2022-08-26T06:26:57;1.83;;;1.73;;
33206;SDS011;19565;46.602;11.534;2022-08-26T06:29:28;2.20;;;2.00;;
33206;SDS011;19565;46.602;11.534;2022-08-26T06:31:59;1.85;;;1.70;;
33206;SDS011;19565;46.602;11.534;2022-08-26T06:34:28;1.67;;;1.58;;
33206;SDS011;19565;46.602;11.534;2022-08-26T06:36:58;2.55;;;1.80;;
33206;SDS011;19565;46.602;11.534;2022-08-26T06:39:28;1.75;;;1.65;;
33206;SDS011;19565;46.602;11.534;2022-08-26T06:41:57;1.92;;;1.83;;
33206;SDS011;19565;46.602;11.534;2022-08-26T06:44:28;1.67;;;1.58;;
33206;SDS011;19565;46.602;11.534;2022-08-26T06:46:57;2.70;;;2.50;;
33206;SDS011;19565;46.602;11.534;2022-08-26T06:49:25;1.92;;;1.83;;
33206;SDS011;19565;46.602;11.534;2022-08-26T06:51:54;1.10;;;1.10;;
33206;SDS011;19565;46.602;11.534;2022-08-26T06:54:25;7.65;;;2.35;;
33206;SDS011;19565;46.602;11.534;2022-08-26T06:56:57;2.05;;;1.95;;
33206;SDS011;19565;46.602;11.534;2022-08-26T06:59:25;2.40;;;2.20;;
33206;SDS011;19565;46.602;11.534;2022-08-26T07:01:54;6.65;;;6.18;;
33206;SDS011;19565;46.602;11.534;2022-08-26T07:04:22;6.68;;;6.22;;
33206;SDS011;19565;46.602;11.534;2022-08-26T07:06:53;6.22;;;5.82;;
33206;SDS011;19565;46.602;11.534;2022-08-26T07:09:24;7.43;;;6.90;;
33206;SDS011;19565;46.602;11.534;2022-08-26T07:11:55;7.40;;;6.90;;
33206;SDS011;19565;46.602;11.534;2022-08-26T07:14:24;8.07;;;7.45;;
33206;SDS011;19565;46.602;11.534;2022-08-26T07:16:53;8.38;;;7.88;;
33206;SDS011;19565;46.602;11.534;2022-08-26T07:19:22;8.95;;;8.18;;
33206;SDS011;19565;46.602;11.534;2022-08-26T07:21:57;8.43;;;7.82;;
33206;SDS011;19565;46.602;11.534;2022-08-26T07:24:28;10.70;;;10.00;;
33206;SDS011;19565;46.602;11.534;2022-08-26T07:26:58;10.15;;;9.55;;
33206;SDS011;19565;46.602;11.534;2022-08-26T07:29:28;11.50;;;10.77;;
33206;SDS011;19565;46.602;11.534;2022-08-26T07:31:56;10.63;;;10.02;;
33206;SDS011;19565;46.602;11.534;2022-08-26T07:34:25;11.75;;;11.05;;
33206;SDS011;19565;46.602;11.534;2022-08-26T07:36:53;13.43;;;12.65;;
33206;SDS011;19565;46.602;11.534;2022-08-26T07:39:23;13.02;;;12.30;;
33206;SDS011;19565;46.602;11.534;2022-08-26T07:41:53;14.05;;;13.32;;
33206;SDS011;19565;46.602;11.534;2022-08-26T07:44:23;15.05;;;14.25;;
33206;SDS011;19565;46.602;11.534;2022-08-26T07:46:52;15.80;;;14.88;;
33206;SDS011;19565;46.602;11.534;2022-08-26T07:49:22;14.68;;;13.88;;
33206;SDS011;19565;46.602;11.534;2022-08-26T07:51:53;14.80;;;14.00;;
33206;SDS011;19565;46.602;11.534;2022-08-26T07:54:23;15.38;;;14.57;;
33206;SDS011;19565;46.602;11.534;2022-08-26T07:56:54;14.70;;;13.90;;
33206;SDS011;19565;46.602;11.534;2022-08-26T07:59:23;15.75;;;14.95;;
33206;SDS011;19565;46.602;11.534;2022-08-26T08:01:51;17.17;;;16.27;;
33206;SDS011;19565;46.602;11.534;2022-08-26T08:04:21;17.70;;;16.80;;
33206;SDS011;19565;46.602;11.534;2022-08-26T08:06:52;17.90;;;17.02;;
33206;SDS011;19565;46.602;11.534;2022-08-26T08:09:21;17.52;;;16.65;;
33206;SDS011;19565;46.602;11.534;2022-08-26T08:11:50;20.35;;;19.35;;
33206;SDS011;19565;46.602;11.534;2022-08-26T08:14:20;23.60;;;22.50;;
33206;SDS011;19565;46.602;11.534;2022-08-26T08:16:48;31.77;;;30.38;;
33206;SDS011;19565;46.602;11.534;2022-08-26T08:19:20;35.45;;;33.95;;
33206;SDS011;19565;46.602;11.534;2022-08-26T08:21:50;42.28;;;40.38;;
33206;SDS011;19565;46.602;11.534;2022-08-26T08:24:20;48.85;;;46.40;;
33206;SDS011;19565;46.602;11.534;2022-08-26T08:26:48;50.90;;;48.70;;
33206;SDS011;19565;46.602;11.534;2022-08-26T08:29:16;52.47;;;50.10;;
33206;SDS011;19565;46.602;11.534;2022-08-26T08:31:46;53.63;;;51.33;;
33206;SDS011;19565;46.602;11.534;2022-08-26T08:34:24;56.67;;;54.28;;
33206;SDS011;19565;46.602;11.534;2022-08-26T08:36:54;55.53;;;53.17;;
33206;SDS011;19565;46.602;11.534;2022-08-26T08:39:22;58.80;;;56.30;;
33206;SDS011;19565;46.602;11.534;2022-08-26T08:41:59;61.30;;;58.70;;
33206;SDS011;19565;46.602;11.534;2022-08-26T08:44:42;59.42;;;56.92;;
33206;SDS011;19565;46.602;11.534;2022-08-26T08:47:20;62.78;;;60.17;;
33206;SDS011;19565;46.602;11.534;2022-08-26T08:49:52;62.13;;;59.50;;
33206;SDS011;19565;46.602;11.534;2022-08-26T08:52:26;60.97;;;58.40;;
33206;SDS011;19565;46.602;11.534;2022-08-26T08:54:57;58.22;;;55.70;;
33206;SDS011;19565;46.602;11.534;2022-08-26T08:57:27;61.90;;;59.30;;
33206;SDS011;19565;46.602;11.534;2022-08-26T09:00:07;61.53;;;58.92;;
33206;SDS011;19565;46.602;11.534;2022-08-26T09:02:46;64.85;;;62.05;;
33206;SDS011;19565;46.602;11.534;2022-08-26T09:05:19;59.10;;;56.53;;
33206;SDS011;19565;46.602;11.534;2022-08-26T09:07:51;62.10;;;59.40;;
33206;SDS011;19565;46.602;11.534;2022-08-26T09:10:31;61.70;;;59.10;;
33206;SDS011;19565;46.602;11.534;2022-08-26T09:13:04;60.83;;;58.13;;
33206;SDS011;19565;46.602;11.534;2022-08-26T09:15:41;63.05;;;60.35;;
33206;SDS011;19565;46.602;11.534;2022-08-26T09:18:21;62.72;;;60.03;;
33206;SDS011;19565;46.602;11.534;2022-08-26T09:20:58;61.80;;;59.17;;
33206;SDS011;19565;46.602;11.534;2022-08-26T09:23:29;64.78;;;62.00;;
33206;SDS011;19565;46.602;11.534;2022-08-26T09:26:02;63.15;;;60.40;;
33206;SDS011;19565;46.602;11.534;2022-08-26T09:28:41;58.55;;;56.05;;
33206;SDS011;19565;46.602;11.534;2022-08-26T09:31:16;61.00;;;58.40;;
33206;SDS011;19565;46.602;11.534;2022-08-26T09:33:50;62.15;;;59.35;;
33206;SDS011;19565;46.602;11.534;2022-08-26T09:36:38;66.05;;;63.15;;
33206;SDS011;19565;46.602;11.534;2022-08-26T09:42:01;68.82;;;65.82;;
33206;SDS011;19565;46.602;11.534;2022-08-26T09:44:32;66.00;;;63.17;;
33206;SDS011;19565;46.602;11.534;2022-08-26T09:47:03;63.47;;;60.78;;
33206;SDS011;19565;46.602;11.534;2022-08-26T09:49:34;64.20;;;61.40;;
33206;SDS011;19565;46.602;11.534;2022-08-26T09:52:07;64.03;;;61.22;;
33206;SDS011;19565;46.602;11.534;2022-08-26T09:54:42;62.30;;;59.70;;
33206;SDS011;19565;46.602;11.534;2022-08-26T09:57:12;70.18;;;67.18;;
33206;SDS011;19565;46.602;11.534;2022-08-26T09:59:48;67.55;;;64.68;;
33206;SDS011;19565;46.602;11.534;2022-08-26T10:02:26;64.35;;;61.55;;
33206;SDS011;19565;46.602;11.534;2022-08-26T10:05:07;65.03;;;61.88;;
33206;SDS011;19565;46.602;11.534;2022-08-26T10:07:42;65.80;;;63.00;;
33206;SDS011;19565;46.602;11.534;2022-08-26T10:10:14;68.47;;;65.57;;
33206;SDS011;19565;46.602;11.534;2022-08-26T10:12:48;61.70;;;59.00;;
33206;SDS011;19565;46.602;11.534;2022-08-26T10:15:25;59.58;;;57.03;;
33206;SDS011;19565;46.602;11.534;2022-08-26T10:17:58;59.28;;;56.78;;
33206;SDS011;19565;46.602;11.534;2022-08-26T10:20:36;59.65;;;57.05;;
33206;SDS011;19565;46.602;11.534;2022-08-26T10:23:16;60.35;;;57.75;;
33206;SDS011;19565;46.602;11.534;2022-08-26T10:25:50;58.30;;;55.80;;
33206;SDS011;19565;46.602;11.534;2022-08-26T10:28:26;57.35;;;54.88;;
33206;SDS011;19565;46.602;11.534;2022-08-26T10:31:02;58.17;;;55.67;;
33206;SDS011;19565;46.602;11.534;2022-08-26T10:33:36;60.35;;;57.75;;
33206;SDS011;19565;46.602;11.534;2022-08-26T10:36:07;58.17;;;55.47;;
33206;SDS011;19565;46.602;11.534;2022-08-26T10:39:13;60.55;;;57.95;;
33206;SDS011;19565;46.602;11.534;2022-08-26T10:41:49;60.42;;;57.83;;
33206;SDS011;19565;46.602;11.534;2022-08-26T10:44:21;60.65;;;58.03;;
33206;SDS011;19565;46.602;11.534;2022-08-26T10:46:52;60.15;;;57.60;;
33206;SDS011;19565;46.602;11.534;2022-08-26T10:49:24;60.30;;;57.70;;
33206;SDS011;19565;46.602;11.534;2022-08-26T10:51:57;60.05;;;57.35;;
33206;SDS011;19565;46.602;11.534;2022-08-26T10:54:38;60.28;;;57.78;;
33206;SDS011;19565;46.602;11.534;2022-08-26T10:57:13;61.25;;;58.55;;
33206;SDS011;19565;46.602;11.534;2022-08-26T10:59:51;58.80;;;56.30;;
33206;SDS011;19565;46.602;11.534;2022-08-26T11:02:30;61.75;;;59.15;;
33206;SDS011;19565;46.602;11.534;2022-08-26T11:05:14;57.05;;;54.65;;
33206;SDS011;19565;46.602;11.534;2022-08-26T11:07:47;58.15;;;55.55;;
33206;SDS011;19565;46.602;11.534;2022-08-26T11:16:37;60.17;;;57.63;;
33206;SDS011;19565;46.602;11.534;2022-08-26T11:19:09;58.78;;;56.28;;
33206;SDS011;19565;46.602;11.534;2022-08-26T11:22:23;58.17;;;55.75;;
33206;SDS011;19565;46.602;11.534;2022-08-26T11:25:00;56.28;;;53.90;;
33206;SDS011;19565;46.602;11.534;2022-08-26T11:30:43;55.15;;;52.85;;
33206;SDS011;19565;46.602;11.534;2022-08-26T11:36:36;52.35;;;50.13;;
33206;SDS011;19565;46.602;11.534;2022-08-26T11:39:18;55.42;;;53.13;;
33206;SDS011;19565;46.602;11.534;2022-08-26T11:41:52;53.67;;;51.38;;
33206;SDS011;19565;46.602;11.534;2022-08-26T11:44:25;52.13;;;49.83;;
33206;SDS011;19565;46.602;11.534;2022-08-26T11:47:03;56.00;;;53.60;;
33206;SDS011;19565;46.602;11.534;2022-08-26T11:49:37;57.75;;;55.25;;
33206;SDS011;19565;46.602;11.534;2022-08-26T11:52:08;59.78;;;57.22;;
33206;SDS011;19565;46.602;11.534;2022-08-26T11:54:39;59.63;;;57.13;;
33206;SDS011;19565;46.602;11.534;2022-08-26T11:57:08;60.88;;;58.28;;
33206;SDS011;19565;46.602;11.534;2022-08-26T11:59:40;59.88;;;57.38;;
33206;SDS011;19565;46.602;11.534;2022-08-26T12:02:13;65.82;;;63.03;;
33206;SDS011;19565;46.602;11.534;2022-08-26T12:04:47;64.20;;;61.50;;
33206;SDS011;19565;46.602;11.534;2022-08-26T12:07:20;61.00;;;58.40;;
33206;SDS011;19565;46.602;11.534;2022-08-26T12:09:52;59.03;;;56.53;;
33206;SDS011;19565;46.602;11.534;2022-08-26T12:12:25;61.70;;;59.10;;
33206;SDS011;19565;46.602;11.534;2022-08-26T12:15:04;61.47;;;58.88;;
33206;SDS011;19565;46.602;11.534;2022-08-26T12:17:35;62.08;;;59.47;;
33206;SDS011;19565;46.602;11.534;2022-08-26T12:20:13;63.03;;;60.33;;
33206;SDS011;19565;46.602;11.534;2022-08-26T12:22:46;59.47;;;56.90;;
33206;SDS011;19565;46.602;11.534;2022-08-26T12:25:14;59.85;;;57.35;;
33206;SDS011;19565;46.602;11.534;2022-08-26T12:27:51;61.25;;;58.65;;
33206;SDS011;19565;46.602;11.534;2022-08-26T12:30:20;60.70;;;58.17;;
33206;SDS011;19565;46.602;11.534;2022-08-26T12:32:52;63.30;;;60.60;;
33206;SDS011;19565;46.602;11.534;2022-08-26T12:35:47;60.25;;;57.65;;
33206;SDS011;19565;46.602;11.534;2022-08-26T12:38:22;60.05;;;57.55;;
33206;SDS011;19565;46.602;11.534;2022-08-26T12:40:52;61.38;;;58.67;;
33206;SDS011;19565;46.602;11.534;2022-08-26T12:43:36;60.40;;;57.55;;
33206;SDS011;19565;46.602;11.534;2022-08-26T12:46:10;62.47;;;59.83;;
33206;SDS011;19565;46.602;11.534;2022-08-26T12:48:41;61.88;;;59.28;;
33206;SDS011;19565;46.602;11.534;2022-08-26T12:54:11;67.60;;;64.72;;
33206;SDS011;19565;46.602;11.534;2022-08-26T12:56:41;69.28;;;66.38;;
33206;SDS011;19565;46.602;11.534;2022-08-26T12:59:20;68.63;;;65.45;;
33206;SDS011;19565;46.602;11.534;2022-08-26T13:01:51;64.45;;;61.75;;
33206;SDS011;19565;46.602;11.534;2022-08-26T13:04:33;63.95;;;61.25;;
33206;SDS011;19565;46.602;11.534;2022-08-26T13:07:20;64.40;;;61.00;;
33206;SDS011;19565;46.602;11.534;2022-08-26T13:09:50;62.90;;;60.17;;
33206;SDS011;19565;46.602;11.534;2022-08-26T13:12:23;57.75;;;55.25;;
33206;SDS011;19565;46.602;11.534;2022-08-26T13:14:55;58.28;;;55.78;;
33206;SDS011;19565;46.602;11.534;2022-08-26T13:17:26;58.20;;;55.70;;
33206;SDS011;19565;46.602;11.534;2022-08-26T13:19:56;56.05;;;53.65;;
33206;SDS011;19565;46.602;11.534;2022-08-26T13:22:29;55.00;;;52.60;;
33206;SDS011;19565;46.602;11.534;2022-08-26T13:24:58;57.50;;;55.10;;
33206;SDS011;19565;46.602;11.534;2022-08-26T13:27:26;55.97;;;53.58;;
33206;SDS011;19565;46.602;11.534;2022-08-26T13:29:56;56.95;;;54.55;;
33206;SDS011;19565;46.602;11.534;2022-08-26T13:32:27;55.20;;;52.90;;
33206;SDS011;19565;46.602;11.534;2022-08-26T13:34:55;54.22;;;51.83;;
33206;SDS011;19565;46.602;11.534;2022-08-26T13:37:25;56.78;;;54.38;;
33206;SDS011;19565;46.602;11.534;2022-08-26T13:40:01;54.95;;;52.55;;
33206;SDS011;19565;46.602;11.534;2022-08-26T13:42:31;57.08;;;54.67;;
33206;SDS011;19565;46.602;11.534;2022-08-26T13:45:01;59.38;;;56.63;;
33206;SDS011;19565;46.602;11.534;2022-08-26T13:47:31;56.83;;;54.33;;
33206;SDS011;19565;46.602;11.534;2022-08-26T13:49:59;55.42;;;52.58;;
33206;SDS011;19565;46.602;11.534;2022-08-26T13:52:28;58.45;;;56.05;;
33206;SDS011;19565;46.602;11.534;2022-08-26T13:54:56;56.28;;;53.95;;
33206;SDS011;19565;46.602;11.534;2022-08-26T13:57:25;56.92;;;54.47;;
33206;SDS011;19565;46.602;11.534;2022-08-26T13:59:55;58.60;;;56.15;;
33206;SDS011;19565;46.602;11.534;2022-08-26T14:02:26;55.30;;;53.00;;
33206;SDS011;19565;46.602;11.534;2022-08-26T14:04:55;59.20;;;56.70;;
33206;SDS011;19565;46.602;11.534;2022-08-26T14:07:23;55.15;;;52.85;;
33206;SDS011;19565;46.602;11.534;2022-08-26T14:09:52;61.15;;;58.55;;
33206;SDS011;19565;46.602;11.534;2022-08-26T14:12:20;56.75;;;54.30;;
33206;SDS011;19565;46.602;11.534;2022-08-26T14:14:48;61.50;;;58.50;;
33206;SDS011;19565;46.602;11.534;2022-08-26T14:17:17;53.83;;;51.55;;
33206;SDS011;19565;46.602;11.534;2022-08-26T14:19:49;57.92;;;55.53;;
33206;SDS011;19565;46.602;11.534;2022-08-26T14:22:18;56.45;;;54.05;;
33206;SDS011;19565;46.602;11.534;2022-08-26T14:24:48;61.25;;;58.75;;
33206;SDS011;19565;46.602;11.534;2022-08-26T14:27:16;59.75;;;57.15;;
33206;SDS011;19565;46.602;11.534;2022-08-26T14:29:44;59.08;;;56.53;;
33206;SDS011;19565;46.602;11.534;2022-08-26T14:32:14;59.17;;;56.67;;
33206;SDS011;19565;46.602;11.534;2022-08-26T14:34:49;60.05;;;57.50;;
33206;SDS011;19565;46.602;11.534;2022-08-26T14:37:18;57.72;;;55.33;;
33206;SDS011;19565;46.602;11.534;2022-08-26T14:39:46;64.60;;;61.85;;
33206;SDS011;19565;46.602;11.534;2022-08-26T14:42:15;58.45;;;55.95;;
33206;SDS011;19565;46.602;11.534;2022-08-26T14:44:57;60.13;;;57.58;;
33206;SDS011;19565;46.602;11.534;2022-08-26T14:47:27;58.67;;;56.17;;
33206;SDS011;19565;46.602;11.534;2022-08-26T14:49:57;62.80;;;60.20;;
33206;SDS011;19565;46.602;11.534;2022-08-26T14:52:25;57.78;;;55.30;;
33206;SDS011;19565;46.602;11.534;2022-08-26T14:54:54;58.25;;;55.67;;
33206;SDS011;19565;46.602;11.534;2022-08-26T14:57:22;57.00;;;54.60;;
33206;SDS011;19565;46.602;11.534;2022-08-26T14:59:50;58.17;;;55.58;;
33206;SDS011;19565;46.602;11.534;2022-08-26T15:02:18;58.60;;;56.10;;
33206;SDS011;19565;46.602;11.534;2022-08-26T15:05:00;55.88;;;53.47;;
33206;SDS011;19565;46.602;11.534;2022-08-26T15:07:29;57.63;;;55.13;;